createdAt,value
2019-05-09T00:00:53.492Z,7.38
2019-05-09T00:03:24.140Z,7.35
2019-05-09T00:05:54.275Z,7.32
2019-05-09T00:08:23.834Z,7.34
2019-05-09T00:10:53.598Z,7.34
2019-05-09T00:13:23.740Z,7.28
2019-05-09T00:15:54.162Z,7.24
2019-05-09T00:18:23.882Z,7.29
2019-05-09T00:21:09.002Z,7.31
2019-05-09T00:23:38.510Z,7.25
2019-05-09T00:26:07.981Z,7.19
2019-05-09T00:28:39.643Z,7.15
2019-05-09T00:31:15.826Z,7.14
2019-05-09T00:33:49.798Z,7.10
2019-05-09T00:36:19.329Z,7.10
2019-05-09T00:38:48.819Z,7.08
2019-05-09T00:41:18.351Z,7.06
2019-05-09T00:43:54.401Z,7.05
2019-05-09T00:46:30.241Z,7.08
2019-05-09T00:49:16.336Z,7.09
2019-05-09T00:51:45.804Z,7.03
2019-05-09T00:54:15.280Z,6.92
2019-05-09T00:56:44.747Z,6.95
2019-05-09T00:59:14.338Z,6.98
2019-05-09T01:01:43.847Z,6.95
2019-05-09T01:04:13.797Z,6.92
2019-05-09T01:06:43.533Z,6.97
2019-05-09T01:09:13.757Z,7.01
2019-05-09T01:11:44.097Z,6.95
2019-05-09T01:14:14.292Z,6.94
2019-05-09T01:16:44.131Z,6.91
2019-05-09T01:19:14.234Z,6.93
2019-05-09T01:21:44.005Z,6.89
2019-05-09T01:24:14.023Z,6.85
2019-05-09T01:26:43.716Z,6.87
2019-05-09T01:29:13.916Z,6.83
2019-05-09T01:31:43.739Z,6.80
2019-05-09T01:34:20.501Z,6.78
2019-05-09T01:37:10.249Z,6.75
2019-05-09T01:39:39.730Z,6.68
2019-05-09T01:42:09.302Z,6.66
2019-05-09T01:44:38.800Z,6.68
2019-05-09T01:47:08.296Z,6.71
2019-05-09T01:49:37.742Z,6.73
2019-05-09T01:52:07.248Z,6.73
2019-05-09T01:54:38.610Z,6.66
2019-05-09T01:57:08.089Z,6.70
2019-05-09T01:59:37.547Z,6.64
2019-05-09T02:02:08.797Z,6.64
2019-05-09T02:04:38.615Z,6.67
2019-05-09T02:07:08.066Z,6.68
2019-05-09T02:09:37.554Z,6.63
2019-05-09T02:12:07.022Z,6.57
2019-05-09T02:14:43.809Z,6.68
2019-05-09T02:17:38.358Z,6.69
2019-05-09T02:20:08.436Z,6.72
2019-05-09T02:22:37.905Z,6.72
2019-05-09T02:25:08.059Z,6.68
2019-05-09T02:27:37.495Z,6.73
2019-05-09T02:30:08.070Z,6.80
2019-05-09T02:32:37.511Z,6.84
2019-05-09T02:35:07.895Z,6.85
2019-05-09T02:37:38.996Z,6.90
2019-05-09T02:40:10.514Z,6.91
2019-05-09T02:42:40.311Z,6.94
2019-05-09T02:45:10.471Z,6.94
2019-05-09T02:47:40.379Z,6.92
2019-05-09T02:50:11.249Z,6.90
2019-05-09T02:52:40.741Z,6.91
2019-05-09T02:55:10.801Z,6.95
2019-05-09T02:57:40.586Z,6.96
2019-05-09T03:00:28.884Z,7.01
2019-05-09T03:03:20.175Z,7.00
2019-05-09T03:05:49.843Z,7.03
2019-05-09T03:08:19.600Z,7.05
2019-05-09T03:10:49.443Z,7.08
2019-05-09T03:13:19.412Z,7.17
2019-05-09T03:15:50.970Z,7.13
2019-05-09T03:18:20.454Z,7.25
2019-05-09T03:21:15.280Z,7.30
2019-05-09T03:23:44.789Z,7.31
2019-05-09T03:26:19.343Z,7.34
2019-05-09T03:29:08.835Z,7.34
2019-05-09T03:31:39.649Z,7.31
2019-05-09T03:34:09.773Z,7.38
2019-05-09T03:36:39.418Z,7.42
2019-05-09T03:39:09.214Z,7.48
2019-05-09T03:41:39.509Z,7.54
2019-05-09T03:44:09.114Z,7.47
2019-05-09T03:46:48.832Z,7.44
2019-05-09T03:49:18.377Z,7.46
2019-05-09T03:51:48.242Z,7.44
2019-05-09T03:54:18.478Z,7.46
2019-05-09T03:56:53.115Z,7.45
2019-05-09T03:59:22.590Z,7.47
2019-05-09T04:01:52.048Z,7.46
2019-05-09T04:04:21.528Z,7.49
2019-05-09T04:06:51.018Z,7.52
2019-05-09T04:09:20.510Z,7.55
2019-05-09T04:11:49.969Z,7.55
2019-05-09T04:14:23.373Z,7.56
2019-05-09T04:16:52.845Z,7.61
2019-05-09T04:19:22.331Z,7.70
2019-05-09T04:21:51.793Z,7.78
2019-05-09T04:24:22.080Z,7.84
2019-05-09T04:26:57.618Z,7.89
2019-05-09T04:29:28.552Z,7.87
2019-05-09T04:31:58.205Z,7.88
2019-05-09T04:34:27.721Z,7.96
2019-05-09T04:36:57.746Z,8.08
2019-05-09T04:39:28.285Z,8.17
2019-05-09T04:42:03.733Z,8.21
2019-05-09T04:44:34.724Z,8.63
2019-05-09T04:47:04.216Z,9.72
2019-05-09T04:49:39.649Z,11.03
2019-05-09T04:52:04.929Z,11.68
2019-05-09T04:54:34.375Z,12.70
2019-05-09T04:57:03.829Z,13.39
2019-05-09T04:59:33.322Z,14.02
2019-05-09T05:02:21.845Z,14.64
2019-05-09T05:04:51.357Z,15.08
2019-05-09T05:07:20.832Z,15.46
2019-05-09T05:09:50.287Z,15.89
2019-05-09T05:12:19.784Z,16.22
2019-05-09T05:14:49.255Z,16.18
2019-05-09T05:17:18.735Z,16.76
2019-05-09T05:19:49.009Z,16.19
2019-05-09T05:22:42.788Z,16.04
2019-05-09T05:25:12.276Z,16.30
2019-05-09T05:27:41.761Z,16.33
2019-05-09T05:30:12.089Z,16.35
2019-05-09T05:32:57.850Z,16.08
2019-05-09T05:35:34.137Z,15.27
2019-05-09T05:38:03.654Z,14.83
2019-05-09T05:40:34.022Z,14.45
2019-05-09T05:43:03.613Z,14.32
2019-05-09T05:45:37.608Z,14.22
2019-05-09T05:48:17.380Z,14.23
2019-05-09T05:50:48.523Z,14.37
2019-05-09T05:53:18.269Z,13.95
2019-05-09T05:55:52.076Z,13.86
2019-05-09T05:58:20.356Z,13.89
2019-05-09T06:00:49.873Z,13.57
2019-05-09T06:03:19.400Z,13.72
2019-05-09T06:05:51.700Z,13.62
2019-05-09T06:08:20.071Z,13.56
2019-05-09T06:10:49.579Z,13.53
2019-05-09T06:13:19.058Z,13.53
2019-05-09T06:15:48.570Z,13.56
2019-05-09T06:18:18.532Z,13.40
2019-05-09T06:20:48.652Z,13.51
2019-05-09T06:23:18.327Z,13.67
2019-05-09T06:25:48.505Z,13.72
2019-05-09T06:28:18.425Z,13.77
2019-05-09T06:30:47.934Z,13.61
2019-05-09T06:33:18.049Z,13.49
2019-05-09T06:35:48.213Z,13.60
2019-05-09T06:38:19.001Z,13.73
2019-05-09T06:40:48.497Z,13.86
2019-05-09T06:43:24.261Z,13.85
2019-05-09T06:46:11.722Z,13.91
2019-05-09T06:48:41.241Z,13.95
2019-05-09T06:51:10.698Z,14.00
2019-05-09T06:53:40.228Z,13.98
2019-05-09T06:56:09.715Z,14.10
2019-05-09T06:58:39.211Z,14.02
2019-05-09T07:01:24.754Z,14.04
2019-05-09T07:03:58.331Z,14.16
2019-05-09T07:06:32.427Z,14.08
2019-05-09T07:09:33.294Z,14.35
2019-05-09T07:12:02.876Z,14.58
2019-05-09T07:14:37.902Z,14.72
2019-05-09T07:17:07.923Z,14.71
2019-05-09T07:19:38.247Z,14.68
2019-05-09T07:22:39.457Z,14.75
2019-05-09T07:25:37.864Z,14.99
2019-05-09T07:28:07.774Z,14.81
2019-05-09T07:30:48.102Z,14.47
2019-05-09T07:33:23.790Z,14.42
2019-05-09T07:35:53.359Z,14.51
2019-05-09T07:38:29.707Z,14.65
2019-05-09T07:41:00.124Z,14.89
2019-05-09T07:43:31.842Z,14.97
2019-05-09T07:46:05.749Z,15.09
2019-05-09T07:48:38.062Z,15.28
2019-05-09T07:51:08.060Z,15.35
2019-05-09T07:53:38.187Z,15.30
2019-05-09T07:56:08.194Z,15.23
2019-05-09T07:58:37.933Z,15.36
2019-05-09T08:01:08.464Z,15.39
2019-05-09T08:03:38.711Z,15.53
2019-05-09T08:06:09.001Z,15.59
2019-05-09T08:08:38.822Z,15.63
2019-05-09T08:11:09.193Z,15.56
2019-05-09T08:13:39.490Z,15.78
2019-05-09T08:16:14.181Z,16.01
2019-05-09T08:18:41.955Z,15.87
2019-05-09T08:21:11.485Z,15.89
2019-05-09T08:23:40.945Z,15.89
2019-05-09T08:26:10.486Z,15.97
2019-05-09T08:28:42.105Z,15.90
2019-05-09T08:31:11.688Z,15.91
2019-05-09T08:33:41.236Z,15.86
2019-05-09T08:36:10.836Z,15.72
2019-05-09T08:38:40.658Z,15.81
2019-05-09T08:41:11.352Z,16.08
2019-05-09T08:43:41.862Z,16.07
2019-05-09T08:46:12.762Z,16.24
2019-05-09T08:48:42.348Z,16.41
2019-05-09T08:51:20.141Z,16.61
2019-05-09T08:53:49.967Z,16.70
2019-05-09T08:56:19.510Z,16.89
2019-05-09T08:58:48.979Z,16.90
2019-05-09T09:01:30.742Z,16.75
2019-05-09T09:03:50.160Z,16.64
2019-05-09T09:06:19.744Z,16.86
2019-05-09T09:08:49.225Z,16.54
2019-05-09T09:11:19.122Z,16.29
2019-05-09T09:13:48.963Z,16.23
2019-05-09T09:16:22.279Z,16.24
2019-05-09T09:18:49.707Z,16.31
2019-05-09T09:21:19.262Z,16.39
2019-05-09T09:23:50.732Z,16.60
2019-05-09T09:26:20.000Z,16.39
2019-05-09T09:28:49.501Z,16.28
2019-05-09T09:31:19.026Z,16.16
2019-05-09T09:33:48.505Z,16.17
2019-05-09T09:36:18.149Z,16.37
2019-05-09T09:38:48.508Z,16.54
2019-05-09T09:41:20.584Z,16.53
2019-05-09T09:43:50.115Z,16.59
2019-05-09T09:46:19.643Z,16.64
2019-05-09T09:48:49.197Z,16.41
2019-05-09T09:51:18.917Z,16.58
2019-05-09T09:53:49.086Z,16.73
2019-05-09T09:56:22.283Z,16.62
2019-05-09T09:58:58.876Z,16.46
2019-05-09T10:01:30.517Z,16.54
2019-05-09T10:04:24.036Z,16.52
2019-05-09T10:06:52.987Z,16.55
2019-05-09T10:09:20.999Z,16.71
2019-05-09T10:11:50.573Z,16.93
2019-05-09T10:14:28.411Z,16.92
2019-05-09T10:17:17.947Z,16.88
2019-05-09T10:19:51.979Z,17.06
2019-05-09T10:22:25.447Z,17.27
2019-05-09T10:24:54.425Z,17.53
2019-05-09T10:27:23.953Z,17.56
2019-05-09T10:29:53.466Z,17.76
2019-05-09T10:32:23.019Z,17.87
2019-05-09T10:34:52.566Z,17.69
2019-05-09T10:37:22.079Z,17.80
2019-05-09T10:39:51.545Z,18.03
2019-05-09T10:42:28.705Z,18.24
2019-05-09T10:45:09.132Z,18.21
2019-05-09T10:47:38.676Z,18.12
2019-05-09T10:50:08.735Z,18.19
2019-05-09T10:52:38.279Z,18.22
2019-05-09T10:55:09.048Z,17.98
2019-05-09T10:57:42.417Z,17.78
2019-05-09T11:00:10.426Z,17.73
2019-05-09T11:02:40.169Z,17.65
2019-05-09T11:05:11.219Z,17.94
2019-05-09T11:07:40.760Z,18.18
2019-05-09T11:10:24.548Z,18.23
2019-05-09T11:12:41.591Z,18.13
2019-05-09T11:15:11.177Z,18.06
2019-05-09T11:17:42.062Z,18.09
2019-05-09T11:20:14.539Z,18.23
2019-05-09T11:22:44.039Z,18.27
2019-05-09T11:25:13.559Z,18.36
2019-05-09T11:27:43.073Z,18.32
2019-05-09T11:30:13.636Z,18.28
2019-05-09T11:32:43.150Z,18.16
2019-05-09T11:35:12.660Z,18.15
2019-05-09T11:37:42.185Z,17.93
2019-05-09T11:40:12.268Z,17.83
2019-05-09T11:42:41.742Z,17.91
2019-05-09T11:45:11.338Z,17.98
2019-05-09T11:47:46.217Z,17.94
2019-05-09T11:50:12.281Z,17.93
2019-05-09T11:52:44.699Z,17.63
2019-05-09T11:55:28.801Z,17.51
2019-05-09T11:57:48.346Z,17.54
2019-05-09T12:00:17.930Z,17.53
2019-05-09T12:02:49.860Z,17.24
2019-05-09T12:05:20.220Z,16.77
2019-05-09T12:07:52.634Z,16.02
2019-05-09T12:10:22.122Z,15.57
2019-05-09T12:12:51.617Z,15.53
2019-05-09T12:15:21.131Z,15.45
2019-05-09T12:17:58.480Z,15.50
2019-05-09T12:20:22.549Z,15.31
2019-05-09T12:22:52.126Z,15.36
2019-05-09T12:25:21.655Z,15.27
2019-05-09T12:27:51.223Z,15.19
2019-05-09T12:30:22.355Z,15.12
2019-05-09T12:32:51.897Z,15.11
2019-05-09T12:35:21.385Z,15.07
2019-05-09T12:37:55.139Z,15.21
2019-05-09T12:40:24.624Z,15.28
2019-05-09T12:42:54.715Z,15.33
2019-05-09T12:45:24.293Z,15.59
2019-05-09T12:48:06.302Z,15.70
2019-05-09T12:50:26.063Z,15.65
2019-05-09T12:52:57.495Z,15.68
2019-05-09T12:55:27.606Z,15.86
2019-05-09T12:57:59.487Z,16.03
2019-05-09T13:00:29.256Z,16.23
2019-05-09T13:02:59.467Z,16.19
2019-05-09T13:05:30.092Z,16.40
2019-05-09T13:07:59.960Z,16.59
2019-05-09T13:10:29.691Z,16.74
2019-05-09T13:12:59.522Z,16.80
2019-05-09T13:15:38.429Z,17.02
2019-05-09T13:18:21.385Z,16.91
2019-05-09T13:20:39.163Z,16.62
2019-05-09T13:23:08.948Z,16.38
2019-05-09T13:25:38.618Z,16.18
2019-05-09T13:28:08.417Z,15.90
2019-05-09T13:30:38.107Z,15.93
2019-05-09T13:33:10.793Z,16.19
2019-05-09T13:35:39.563Z,16.40
2019-05-09T13:38:10.107Z,16.54
2019-05-09T13:40:39.622Z,16.69
2019-05-09T13:43:09.128Z,16.91
2019-05-09T13:45:40.664Z,16.69
2019-05-09T13:48:26.444Z,16.44
2019-05-09T13:50:44.803Z,16.54
2019-05-09T13:53:14.419Z,16.59
2019-05-09T13:55:43.897Z,16.72
2019-05-09T13:58:15.471Z,16.57
2019-05-09T14:00:56.707Z,16.51
2019-05-09T14:03:18.074Z,16.43
2019-05-09T14:05:48.476Z,16.36
2019-05-09T14:08:19.266Z,16.37
2019-05-09T14:10:54.901Z,16.38
2019-05-09T14:13:24.347Z,16.23
2019-05-09T14:15:54.277Z,16.27
2019-05-09T14:18:24.574Z,16.27
2019-05-09T14:20:54.073Z,16.33
2019-05-09T14:23:24.046Z,16.38
2019-05-09T14:25:53.559Z,16.40
2019-05-09T14:28:23.919Z,16.20
2019-05-09T14:30:53.411Z,15.67
2019-05-09T14:33:24.950Z,15.64
2019-05-09T14:35:54.444Z,15.53
2019-05-09T14:38:28.408Z,15.40
2019-05-09T14:41:02.241Z,15.31
2019-05-09T14:43:31.749Z,15.23
2019-05-09T14:46:01.287Z,15.07
2019-05-09T14:48:32.739Z,15.01
2019-05-09T14:51:02.270Z,15.05
2019-05-09T14:53:32.177Z,15.09
2019-05-09T14:56:01.719Z,15.14
2019-05-09T14:58:31.235Z,15.15
2019-05-09T15:01:01.029Z,15.20
2019-05-09T15:03:30.582Z,15.25
2019-05-09T15:06:00.126Z,15.21
2019-05-09T15:08:29.604Z,15.10
2019-05-09T15:10:59.455Z,14.79
2019-05-09T15:13:28.918Z,14.63
2019-05-09T15:15:58.448Z,14.55
2019-05-09T15:18:28.304Z,14.46
2019-05-09T15:20:58.775Z,14.43
2019-05-09T15:23:29.324Z,14.46
2019-05-09T15:26:00.036Z,14.39
2019-05-09T15:28:29.909Z,14.31
2019-05-09T15:30:59.751Z,14.20
2019-05-09T15:33:31.668Z,14.07
2019-05-09T15:36:02.279Z,14.02
2019-05-09T15:38:32.078Z,13.88
2019-05-09T15:41:04.427Z,13.83
2019-05-09T15:43:34.446Z,13.74
2019-05-09T15:46:18.694Z,13.69
2019-05-09T15:48:48.287Z,13.74
2019-05-09T15:51:19.737Z,13.70
2019-05-09T15:53:49.567Z,13.52
2019-05-09T15:56:19.023Z,13.52
2019-05-09T15:58:49.148Z,13.44
2019-05-09T16:01:19.638Z,13.42
2019-05-09T16:03:49.430Z,13.46
2019-05-09T16:06:20.627Z,13.47
2019-05-09T16:08:52.570Z,13.42
2019-05-09T16:11:24.666Z,13.34
2019-05-09T16:13:54.582Z,13.29
2019-05-09T16:16:24.265Z,13.29
2019-05-09T16:18:54.160Z,13.38
2019-05-09T16:21:27.614Z,13.46
2019-05-09T16:23:59.232Z,13.49
2019-05-09T16:26:29.187Z,13.55
2019-05-09T16:28:58.878Z,13.57
2019-05-09T16:31:35.095Z,13.48
2019-05-09T16:34:04.583Z,13.57
2019-05-09T16:36:34.081Z,13.55
2019-05-09T16:39:07.443Z,13.54
2019-05-09T16:41:39.197Z,13.44
2019-05-09T16:44:09.555Z,13.35
2019-05-09T16:46:39.134Z,13.40
2019-05-09T16:49:11.774Z,13.41
2019-05-09T16:51:42.511Z,13.32
2019-05-09T16:54:12.404Z,13.33
2019-05-09T16:56:43.102Z,13.28
2019-05-09T16:59:12.581Z,13.26
2019-05-09T17:01:47.661Z,13.20
2019-05-09T17:04:19.204Z,13.16
2019-05-09T17:07:08.405Z,13.19
2019-05-09T17:10:17.736Z,13.20
2019-05-09T17:12:47.844Z,13.19
2019-05-09T17:15:20.715Z,13.17
2019-05-09T17:17:52.575Z,13.09
2019-05-09T17:20:29.289Z,13.06
2019-05-09T17:23:15.013Z,12.97
2019-05-09T17:25:43.585Z,12.99
2019-05-09T17:28:13.098Z,12.87
2019-05-09T17:30:49.022Z,12.92
2019-05-09T17:33:22.413Z,12.86
2019-05-09T17:35:53.552Z,12.86
2019-05-09T17:38:23.322Z,12.85
2019-05-09T17:40:53.865Z,12.84
2019-05-09T17:43:27.793Z,12.83
2019-05-09T17:45:58.409Z,12.82
2019-05-09T17:48:28.863Z,12.82
2019-05-09T17:51:05.308Z,12.80
2019-05-09T17:53:35.137Z,12.83
2019-05-09T17:56:04.974Z,12.81
2019-05-09T17:58:37.833Z,12.76
2019-05-09T18:01:09.933Z,12.79
2019-05-09T18:03:40.415Z,12.75
2019-05-09T18:06:09.949Z,12.69
2019-05-09T18:08:40.730Z,12.66
2019-05-09T18:11:17.452Z,12.61
2019-05-09T18:13:48.113Z,12.50
2019-05-09T18:16:19.027Z,12.39
2019-05-09T18:18:50.248Z,12.32
2019-05-09T18:21:24.444Z,12.32
2019-05-09T18:23:55.529Z,12.30
2019-05-09T18:26:27.502Z,12.29
2019-05-09T18:29:09.276Z,12.30
2019-05-09T18:31:52.275Z,12.31
2019-05-09T18:34:24.836Z,12.26
2019-05-09T18:36:58.763Z,12.23
2019-05-09T18:39:27.928Z,12.28
2019-05-09T18:41:57.839Z,12.26
2019-05-09T18:44:35.090Z,12.26
2019-05-09T18:47:07.804Z,12.27
2019-05-09T18:49:37.984Z,12.28
2019-05-09T18:52:07.473Z,12.27
2019-05-09T18:54:41.231Z,12.29
2019-05-09T18:57:10.822Z,12.29
2019-05-09T18:59:40.330Z,12.20
2019-05-09T19:02:12.378Z,12.13
2019-05-09T19:04:46.335Z,12.14
2019-05-09T19:07:22.299Z,12.13
2019-05-09T19:09:49.404Z,12.08
2019-05-09T19:12:20.920Z,12.06
2019-05-09T19:14:54.249Z,12.02
2019-05-09T19:17:41.630Z,12.00
2019-05-09T19:20:32.932Z,11.94
2019-05-09T19:23:07.700Z,11.99
2019-05-09T19:25:37.167Z,12.06
2019-05-09T19:28:07.006Z,12.08
2019-05-09T19:30:36.502Z,12.02
2019-05-09T19:33:06.654Z,12.00
2019-05-09T19:35:37.444Z,11.95
2019-05-09T19:38:09.031Z,12.00
2019-05-09T19:40:42.871Z,12.04
2019-05-09T19:43:15.180Z,12.02
2019-05-09T19:45:45.100Z,12.04
2019-05-09T19:48:14.589Z,12.00
2019-05-09T19:50:44.830Z,12.04
2019-05-09T19:53:15.457Z,12.05
2019-05-09T19:55:47.934Z,11.95
2019-05-09T19:58:20.537Z,11.98
2019-05-09T20:00:51.820Z,11.88
2019-05-09T20:03:24.165Z,11.87
2019-05-09T20:06:03.056Z,11.87
2019-05-09T20:08:34.392Z,11.93
2019-05-09T20:11:25.961Z,11.99
2019-05-09T20:14:30.569Z,12.04
2019-05-09T20:17:02.266Z,12.06
2019-05-09T20:19:32.191Z,12.05
2019-05-09T20:22:03.734Z,12.07
2019-05-09T20:24:55.146Z,12.05
2019-05-09T20:27:28.347Z,12.07
2019-05-09T20:29:59.748Z,12.14
2019-05-09T20:32:32.348Z,12.13
2019-05-09T20:35:02.230Z,12.14
2019-05-09T20:37:33.639Z,12.18
2019-05-09T20:40:05.374Z,12.06
2019-05-09T20:42:35.094Z,11.91
2019-05-09T20:45:05.445Z,11.82
2019-05-09T20:47:43.954Z,11.83
2019-05-09T20:50:16.691Z,11.80
2019-05-09T20:52:51.022Z,11.80
2019-05-09T20:55:23.964Z,11.80
2019-05-09T20:57:56.035Z,11.71
2019-05-09T21:00:26.374Z,11.64
2019-05-09T21:02:56.075Z,11.65
2019-05-09T21:05:26.099Z,11.72
2019-05-09T21:07:55.869Z,11.75
2019-05-09T21:10:25.535Z,11.75
2019-05-09T21:12:55.547Z,11.66
2019-05-09T21:15:26.113Z,11.60
2019-05-09T21:18:01.410Z,11.57
2019-05-09T21:20:31.078Z,11.57
2019-05-09T21:23:00.807Z,11.61
2019-05-09T21:25:33.247Z,11.60
2019-05-09T21:28:06.331Z,11.59
2019-05-09T21:30:35.979Z,11.66
2019-05-09T21:33:07.874Z,11.67
2019-05-09T21:35:38.617Z,11.66
2019-05-09T21:38:10.522Z,11.68
2019-05-09T21:40:42.079Z,11.64
2019-05-09T21:43:11.603Z,11.65
2019-05-09T21:45:41.139Z,11.62
2019-05-09T21:48:11.063Z,11.54
2019-05-09T21:50:40.865Z,11.56
2019-05-09T21:53:10.372Z,11.50
2019-05-09T21:55:41.140Z,11.44
2019-05-09T21:58:14.057Z,11.47
2019-05-09T22:00:46.458Z,11.48
2019-05-09T22:03:16.031Z,11.54
2019-05-09T22:05:51.626Z,11.54
2019-05-09T22:08:22.863Z,11.62
2019-05-09T22:10:52.629Z,11.64
2019-05-09T22:13:22.111Z,11.57
2019-05-09T22:15:51.636Z,11.45
2019-05-09T22:18:21.105Z,11.45
2019-05-09T22:20:51.140Z,11.42
2019-05-09T22:23:20.597Z,11.34
2019-05-09T22:25:50.992Z,11.33
2019-05-09T22:28:20.533Z,11.34
2019-05-09T22:30:50.095Z,11.35
2019-05-09T22:33:20.053Z,11.31
2019-05-09T22:35:49.552Z,11.33
2019-05-09T22:38:19.016Z,11.29
2019-05-09T22:40:48.487Z,11.26
2019-05-09T22:43:17.984Z,11.27
2019-05-09T22:45:47.450Z,11.24
2019-05-09T22:48:16.919Z,11.22
2019-05-09T22:50:46.385Z,11.24
2019-05-09T22:53:15.836Z,11.23
2019-05-09T22:55:45.396Z,11.18
2019-05-09T22:58:14.891Z,11.13
2019-05-09T23:00:44.456Z,11.22
2019-05-09T23:03:14.403Z,11.25
2019-05-09T23:05:43.891Z,11.29
2019-05-09T23:08:13.522Z,11.17
2019-05-09T23:10:42.989Z,11.26
2019-05-09T23:13:12.463Z,11.24
2019-05-09T23:15:41.947Z,11.22
2019-05-09T23:18:11.426Z,11.13
2019-05-09T23:20:52.729Z,11.17
2019-05-09T23:23:29.917Z,11.29
2019-05-09T23:25:59.483Z,11.26
2019-05-09T23:28:29.017Z,11.33
2019-05-09T23:31:00.774Z,11.37
2019-05-09T23:33:33.303Z,11.40
2019-05-09T23:36:02.772Z,11.33
2019-05-09T23:38:32.258Z,11.35
2019-05-09T23:41:01.716Z,11.26
2019-05-09T23:43:31.183Z,11.24
2019-05-09T23:46:00.706Z,11.34
2019-05-09T23:48:30.173Z,11.33
2019-05-09T23:50:59.622Z,11.27
2019-05-09T23:53:35.853Z,11.23
2019-05-09T23:56:22.961Z,11.32
2019-05-09T23:59:10.130Z,11.39
